createdAt,value
2022-11-13T00:01:26.339Z,5.40
2022-11-13T00:04:12.764Z,7.10
2022-11-13T00:06:59.537Z,5.60
2022-11-13T00:09:45.629Z,5.00
2022-11-13T00:12:31.228Z,5.50
2022-11-13T00:15:16.796Z,6.80
2022-11-13T00:18:03.200Z,9.00
2022-11-13T00:20:49.097Z,4.90
2022-11-13T00:23:35.517Z,4.40
2022-11-13T00:26:26.388Z,7.30
2022-11-13T00:29:12.071Z,5.20
2022-11-13T00:31:57.580Z,7.00
2022-11-13T00:34:48.103Z,5.00
2022-11-13T00:37:34.605Z,6.40
2022-11-13T00:40:20.414Z,5.80
2022-11-13T00:43:06.021Z,5.60
2022-11-13T00:45:51.715Z,4.80
2022-11-13T00:48:37.412Z,6.30
2022-11-13T00:51:23.383Z,4.40
2022-11-13T00:54:08.939Z,5.60
2022-11-13T00:56:54.651Z,3.40
2022-11-13T00:59:40.170Z,4.10
2022-11-13T01:02:25.838Z,3.30
2022-11-13T01:05:11.519Z,6.80
2022-11-13T01:07:57.443Z,6.60
2022-11-13T01:10:52.984Z,4.00
2022-11-13T01:13:40.772Z,4.50
2022-11-13T01:16:29.319Z,4.30
2022-11-13T01:19:15.487Z,5.40
2022-11-13T01:22:01.060Z,5.50
2022-11-13T01:24:46.846Z,8.00
2022-11-13T01:27:32.432Z,8.30
2022-11-13T01:30:18.057Z,6.60
2022-11-13T01:33:03.881Z,4.60
2022-11-13T01:35:49.565Z,5.30
2022-11-13T01:38:37.076Z,6.10
2022-11-13T01:41:25.666Z,5.30
2022-11-13T01:44:15.454Z,8.20
2022-11-13T01:47:01.298Z,6.90
2022-11-13T01:49:47.110Z,6.60
2022-11-13T01:52:35.370Z,6.30
2022-11-13T01:55:20.978Z,8.00
2022-11-13T01:58:07.365Z,8.60
2022-11-13T02:00:52.832Z,6.10
2022-11-13T02:03:38.695Z,5.40
2022-11-13T02:06:25.887Z,5.20
2022-11-13T02:09:11.442Z,5.00
2022-11-13T02:11:57.211Z,3.30
2022-11-13T02:14:47.968Z,4.70
2022-11-13T02:17:36.048Z,3.80
2022-11-13T02:20:44.360Z,4.30
2022-11-13T02:23:43.083Z,5.00
2022-11-13T02:26:28.994Z,3.50
2022-11-13T02:29:14.666Z,4.30
2022-11-13T02:32:00.409Z,3.70
2022-11-13T02:34:46.200Z,4.50
2022-11-13T02:37:31.776Z,5.50
2022-11-13T02:40:18.624Z,4.60
2022-11-13T02:43:04.308Z,4.40
2022-11-13T02:45:50.003Z,5.00
2022-11-13T02:48:35.950Z,5.00
2022-11-13T02:51:21.431Z,3.90
2022-11-13T02:54:07.321Z,5.10
2022-11-13T02:56:52.916Z,4.50
2022-11-13T02:59:38.611Z,4.40
2022-11-13T03:02:24.414Z,5.50
2022-11-13T03:05:13.043Z,5.10
2022-11-13T03:07:59.560Z,5.20
2022-11-13T03:10:46.245Z,4.50
2022-11-13T03:13:31.971Z,3.70
2022-11-13T03:16:17.884Z,4.30
2022-11-13T03:19:04.336Z,5.00
2022-11-13T03:21:50.128Z,5.10
2022-11-13T03:24:35.832Z,4.90
2022-11-13T03:27:21.739Z,5.00
2022-11-13T03:30:08.170Z,6.40
2022-11-13T03:32:57.524Z,5.00
2022-11-13T03:35:46.941Z,5.30
2022-11-13T03:38:33.723Z,4.50
2022-11-13T03:41:19.846Z,4.90
2022-11-13T03:44:05.673Z,4.80
2022-11-13T03:46:51.285Z,5.60
2022-11-13T03:49:36.971Z,5.50
2022-11-13T03:52:22.755Z,5.60
2022-11-13T03:55:08.500Z,4.30
2022-11-13T03:57:54.179Z,6.80
2022-11-13T04:00:40.626Z,5.30
2022-11-13T04:03:25.924Z,5.60
2022-11-13T04:06:11.795Z,4.20
2022-11-13T04:08:57.781Z,4.00
2022-11-13T04:11:43.691Z,5.00
2022-11-13T04:14:29.394Z,6.30
2022-11-13T04:17:15.216Z,6.30
2022-11-13T04:20:01.141Z,7.10
2022-11-13T04:22:46.609Z,5.10
2022-11-13T04:25:32.398Z,5.10
2022-11-13T04:28:18.060Z,5.50
2022-11-13T04:31:03.767Z,6.10
2022-11-13T04:33:49.431Z,5.70
2022-11-13T04:36:35.134Z,5.80
2022-11-13T04:39:20.716Z,5.60
2022-11-13T04:42:25.549Z,4.80
2022-11-13T04:45:11.131Z,5.30
2022-11-13T04:47:56.711Z,4.60
2022-11-13T04:50:42.365Z,9.90
2022-11-13T04:53:28.003Z,4.80
2022-11-13T04:56:13.870Z,6.80
2022-11-13T04:58:59.435Z,4.80
2022-11-13T05:01:45.295Z,4.90
2022-11-13T05:04:31.248Z,5.90
2022-11-13T05:07:17.256Z,5.20
2022-11-13T05:10:03.109Z,6.20
2022-11-13T05:12:48.940Z,6.70
2022-11-13T05:15:34.665Z,5.80
2022-11-13T05:18:20.362Z,5.70
2022-11-13T05:21:06.997Z,5.30
2022-11-13T05:23:52.669Z,5.30
2022-11-13T05:26:39.257Z,7.70
2022-11-13T05:29:24.739Z,5.30
2022-11-13T05:32:10.420Z,7.50
2022-11-13T05:34:55.902Z,6.70
2022-11-13T05:37:41.586Z,7.60
2022-11-13T05:40:27.213Z,4.80
2022-11-13T05:43:12.781Z,5.90
2022-11-13T05:46:06.827Z,6.90
2022-11-13T05:48:54.563Z,9.90
2022-11-13T05:51:40.067Z,8.30
2022-11-13T05:54:25.682Z,7.20
2022-11-13T05:57:11.315Z,6.90
2022-11-13T05:59:56.990Z,5.60
2022-11-13T06:02:42.580Z,9.00
2022-11-13T06:05:28.365Z,6.40
2022-11-13T06:08:13.860Z,9.30
2022-11-13T06:11:08.789Z,6.10
2022-11-13T06:13:56.201Z,8.70
2022-11-13T06:16:41.640Z,6.10
2022-11-13T06:19:27.267Z,5.30
2022-11-13T06:22:12.963Z,6.50
2022-11-13T06:24:59.003Z,8.50
2022-11-13T06:27:44.584Z,8.40
2022-11-13T06:30:30.376Z,11.00
2022-11-13T06:33:16.119Z,7.60
2022-11-13T06:36:15.977Z,6.20
2022-11-13T06:39:01.962Z,7.40
2022-11-13T06:41:47.751Z,5.70
2022-11-13T06:44:33.169Z,6.30
2022-11-13T06:47:18.950Z,8.00
2022-11-13T06:50:05.387Z,7.20
2022-11-13T06:52:50.901Z,5.50
2022-11-13T06:55:36.580Z,6.80
2022-11-13T06:58:22.371Z,8.80
2022-11-13T07:01:09.136Z,7.30
2022-11-13T07:03:54.674Z,6.80
2022-11-13T07:06:40.750Z,6.00
2022-11-13T07:09:26.637Z,8.10
2022-11-13T07:12:12.331Z,7.80
2022-11-13T07:14:57.913Z,5.70
2022-11-13T07:17:43.793Z,7.30
2022-11-13T07:20:29.910Z,7.10
2022-11-13T07:23:15.571Z,6.80
2022-11-13T07:26:01.666Z,5.40
2022-11-13T07:28:47.759Z,6.50
2022-11-13T07:31:33.456Z,6.00
2022-11-13T07:34:18.952Z,8.40
2022-11-13T07:37:07.073Z,6.50
2022-11-13T07:39:52.962Z,5.60
2022-11-13T07:42:39.257Z,5.40
2022-11-13T07:45:25.142Z,5.90
2022-11-13T07:48:11.234Z,5.60
2022-11-13T07:51:00.961Z,6.80
2022-11-13T07:53:46.908Z,5.80
2022-11-13T07:56:32.422Z,4.40
2022-11-13T07:59:18.170Z,4.50
2022-11-13T08:02:03.875Z,6.70
2022-11-13T08:04:49.696Z,5.20
2022-11-13T08:07:35.579Z,4.50
2022-11-13T08:10:21.419Z,4.50
2022-11-13T08:13:08.738Z,5.20
2022-11-13T08:15:54.537Z,3.80
2022-11-13T08:18:40.349Z,3.80
2022-11-13T08:21:26.001Z,3.10
2022-11-13T08:24:11.585Z,3.60
2022-11-13T08:26:58.118Z,3.30
2022-11-13T08:29:44.079Z,2.40
2022-11-13T08:32:29.514Z,2.70
2022-11-13T08:35:19.207Z,3.70
2022-11-13T08:38:07.375Z,3.60
2022-11-13T08:40:56.337Z,4.10
2022-11-13T08:43:42.024Z,3.60
2022-11-13T08:46:28.034Z,2.60
2022-11-13T08:49:13.794Z,2.50
2022-11-13T08:51:59.684Z,3.00
2022-11-13T08:54:45.370Z,3.50
2022-11-13T08:57:30.957Z,3.30
2022-11-13T09:00:17.473Z,2.90
2022-11-13T09:03:03.520Z,2.70
2022-11-13T09:05:49.231Z,2.90
2022-11-13T09:08:35.121Z,4.70
2022-11-13T09:11:21.014Z,3.40
2022-11-13T09:14:06.614Z,2.70
2022-11-13T09:16:52.390Z,2.70
2022-11-13T09:19:37.849Z,4.00
2022-11-13T09:22:24.054Z,2.90
2022-11-13T09:25:09.840Z,2.20
2022-11-13T09:27:56.966Z,2.50
2022-11-13T09:30:42.286Z,2.80
2022-11-13T09:33:27.934Z,3.70
2022-11-13T09:36:14.967Z,1.30
2022-11-13T09:39:01.129Z,2.80
2022-11-13T09:41:59.212Z,2.00
2022-11-13T09:44:54.304Z,3.30
2022-11-13T09:47:44.703Z,3.60
2022-11-13T09:50:31.518Z,1.30
2022-11-13T09:53:17.512Z,4.80
2022-11-13T09:56:27.865Z,2.10
2022-11-13T09:59:43.658Z,2.90
2022-11-13T10:03:06.821Z,2.10
2022-11-13T10:05:56.191Z,1.90
2022-11-13T10:08:52.494Z,1.60
2022-11-13T10:11:46.822Z,1.80
2022-11-13T10:14:53.182Z,2.40
2022-11-13T10:18:19.067Z,2.20
2022-11-13T10:21:18.093Z,3.60
2022-11-13T10:24:08.328Z,2.40
2022-11-13T10:26:59.335Z,1.70
2022-11-13T10:29:48.954Z,1.80
2022-11-13T10:32:35.185Z,2.10
2022-11-13T10:35:41.962Z,2.00
2022-11-13T10:38:36.253Z,1.80
2022-11-13T10:41:22.465Z,1.90
2022-11-13T10:44:18.466Z,2.00
2022-11-13T10:47:26.447Z,1.70
2022-11-13T10:50:27.439Z,2.10
2022-11-13T10:53:19.767Z,2.80
2022-11-13T10:56:28.424Z,1.90
2022-11-13T10:59:18.776Z,1.70
2022-11-13T11:02:24.829Z,1.40
2022-11-13T11:05:19.495Z,1.40
2022-11-13T11:08:08.985Z,1.80
2022-11-13T11:11:20.930Z,1.30
2022-11-13T11:14:25.249Z,1.30
2022-11-13T11:17:11.950Z,1.60
2022-11-13T11:20:07.574Z,1.00
2022-11-13T11:22:57.733Z,1.50
2022-11-13T11:25:55.090Z,1.20
2022-11-13T11:28:47.068Z,1.00
2022-11-13T11:31:35.574Z,1.10
2022-11-13T11:34:49.057Z,1.50
2022-11-13T11:38:10.128Z,1.30
2022-11-13T11:41:01.939Z,1.10
2022-11-13T11:44:25.354Z,0.90
2022-11-13T11:47:15.097Z,1.40
2022-11-13T11:50:01.703Z,1.90
2022-11-13T11:52:55.692Z,1.10
2022-11-13T11:55:50.997Z,0.80
2022-11-13T11:58:57.175Z,1.60
2022-11-13T12:01:43.050Z,1.00
2022-11-13T12:04:48.252Z,1.00
2022-11-13T12:07:42.370Z,1.50
2022-11-13T12:13:35.007Z,1.10
2022-11-13T12:16:36.117Z,1.50
2022-11-13T12:19:44.213Z,1.20
2022-11-13T12:23:09.093Z,2.10
2022-11-13T12:26:01.619Z,1.20
2022-11-13T12:29:02.783Z,1.00
2022-11-13T12:31:54.614Z,2.50
2022-11-13T12:34:49.203Z,1.40
2022-11-13T12:37:50.466Z,1.00
2022-11-13T12:40:45.260Z,1.10
2022-11-13T12:43:59.003Z,2.50
2022-11-13T12:46:44.988Z,1.60
2022-11-13T12:49:34.989Z,1.80
2022-11-13T12:52:23.074Z,1.60
2022-11-13T12:55:27.848Z,1.40
2022-11-13T12:58:31.111Z,2.00
2022-11-13T13:01:18.743Z,2.50
2022-11-13T13:04:34.159Z,1.10
2022-11-13T13:07:38.483Z,1.20
2022-11-13T13:10:42.158Z,1.10
2022-11-13T13:13:52.334Z,1.50
2022-11-13T13:16:37.911Z,1.60
2022-11-13T13:19:29.135Z,1.00
2022-11-13T13:22:29.623Z,2.30
2022-11-13T13:25:32.617Z,1.30
2022-11-13T13:28:23.091Z,1.60
2022-11-13T13:31:27.061Z,1.20
2022-11-13T13:34:41.259Z,1.20
2022-11-13T13:37:49.353Z,1.70
2022-11-13T13:41:01.895Z,0.80
2022-11-13T13:43:55.711Z,0.90
2022-11-13T13:46:41.826Z,0.90
2022-11-13T13:49:27.528Z,1.00
2022-11-13T13:52:14.911Z,1.00
2022-11-13T13:55:02.316Z,1.50
2022-11-13T13:57:48.228Z,0.80
2022-11-13T14:00:34.014Z,1.30
2022-11-13T14:03:21.343Z,1.80
2022-11-13T14:06:21.769Z,1.00
2022-11-13T14:09:09.105Z,0.70
2022-11-13T14:12:00.311Z,1.10
2022-11-13T14:14:46.878Z,1.50
2022-11-13T14:17:34.220Z,0.80
2022-11-13T14:20:21.042Z,2.60
2022-11-13T14:23:10.107Z,1.30
2022-11-13T14:25:56.104Z,1.50
2022-11-13T14:28:53.663Z,1.60
2022-11-13T14:31:39.567Z,1.90
2022-11-13T14:34:25.381Z,2.80
2022-11-13T14:37:22.490Z,1.50
2022-11-13T14:40:20.924Z,1.30
2022-11-13T14:43:10.565Z,0.80
2022-11-13T14:46:07.198Z,1.80
2022-11-13T14:48:54.853Z,1.00
2022-11-13T14:51:40.755Z,1.30
2022-11-13T14:54:46.919Z,2.90
2022-11-13T14:57:36.157Z,0.90
2022-11-13T15:00:32.377Z,0.70
2022-11-13T15:03:18.321Z,1.80
2022-11-13T15:06:04.256Z,2.30
2022-11-13T15:08:50.961Z,2.50
2022-11-13T15:11:40.338Z,1.60
2022-11-13T15:14:26.357Z,1.30
2022-11-13T15:17:16.961Z,10.50
2022-11-13T15:20:08.322Z,2.90
2022-11-13T15:22:55.669Z,0.80
2022-11-13T15:25:42.185Z,1.70
2022-11-13T15:28:28.091Z,2.50
2022-11-13T15:31:21.785Z,1.60
2022-11-13T15:34:12.351Z,1.90
2022-11-13T15:36:58.320Z,0.80
2022-11-13T15:39:44.348Z,1.20
2022-11-13T15:42:32.686Z,1.20
2022-11-13T15:45:18.752Z,1.10
2022-11-13T15:48:04.646Z,1.50
2022-11-13T15:50:50.439Z,1.30
2022-11-13T15:53:36.036Z,1.10
2022-11-13T15:56:21.737Z,2.50
2022-11-13T15:59:11.068Z,1.20
2022-11-13T16:01:58.406Z,1.30
2022-11-13T16:04:56.066Z,3.00
2022-11-13T16:07:43.165Z,0.60
2022-11-13T16:10:28.864Z,1.00
2022-11-13T16:13:14.685Z,2.60
2022-11-13T16:16:00.440Z,1.60
2022-11-13T16:18:46.925Z,1.30
2022-11-13T16:21:32.920Z,1.00
2022-11-13T16:24:22.728Z,1.50
2022-11-13T16:27:09.720Z,2.40
2022-11-13T16:29:55.909Z,1.50
2022-11-13T16:32:41.599Z,1.70
2022-11-13T16:35:29.530Z,2.80
2022-11-13T16:38:15.735Z,1.50
2022-11-13T16:41:03.050Z,1.90
2022-11-13T16:43:48.685Z,1.40
2022-11-13T16:46:35.792Z,1.10
2022-11-13T16:51:43.050Z,2.40
2022-11-13T16:54:29.067Z,3.80
2022-11-13T16:57:16.611Z,8.00
2022-11-13T17:00:02.667Z,3.10
2022-11-13T17:02:52.941Z,1.40
2022-11-13T17:05:38.436Z,1.30
2022-11-13T17:08:24.371Z,0.80
2022-11-13T17:11:10.563Z,0.90
2022-11-13T17:13:57.949Z,0.70
2022-11-13T17:16:43.739Z,1.20
2022-11-13T17:19:29.458Z,0.60
2022-11-13T17:22:17.138Z,1.20
2022-11-13T17:25:02.416Z,4.10
2022-11-13T17:27:48.327Z,0.80
2022-11-13T17:30:34.104Z,0.90
2022-11-13T17:33:19.784Z,1.40
2022-11-13T17:36:09.240Z,1.10
2022-11-13T17:38:55.758Z,0.80
2022-11-13T17:41:41.607Z,1.60
2022-11-13T17:44:27.746Z,0.90
2022-11-13T17:47:13.938Z,3.20
2022-11-13T17:50:05.598Z,1.60
2022-11-13T17:52:53.375Z,3.00
2022-11-13T17:55:39.182Z,1.40
2022-11-13T17:58:24.763Z,0.90
2022-11-13T18:01:13.721Z,1.10
2022-11-13T18:04:00.318Z,0.40
2022-11-13T18:06:46.265Z,1.30
2022-11-13T18:09:31.904Z,1.40
2022-11-13T18:12:17.598Z,4.30
2022-11-13T18:15:04.398Z,1.00
2022-11-13T18:17:49.844Z,3.90
2022-11-13T18:20:36.380Z,1.40
2022-11-13T18:23:22.174Z,2.00
2022-11-13T18:26:13.182Z,1.50
2022-11-13T18:28:59.477Z,1.90
2022-11-13T18:31:45.921Z,2.90
2022-11-13T18:34:31.559Z,2.80
2022-11-13T18:37:17.322Z,1.70
2022-11-13T18:40:03.753Z,1.10
2022-11-13T18:42:51.114Z,1.50
2022-11-13T18:45:36.771Z,3.50
2022-11-13T18:48:23.702Z,2.10
2022-11-13T18:51:20.919Z,1.40
2022-11-13T18:54:09.879Z,3.10
2022-11-13T18:56:55.903Z,1.10
2022-11-13T18:59:41.713Z,2.00
2022-11-13T19:02:28.647Z,4.20
2022-11-13T19:05:14.053Z,2.00
2022-11-13T19:07:59.741Z,1.10
2022-11-13T19:10:45.978Z,1.90
2022-11-13T19:13:31.758Z,2.00
2022-11-13T19:16:19.762Z,2.10
2022-11-13T19:19:07.960Z,2.10
2022-11-13T19:21:53.692Z,1.40
2022-11-13T19:24:40.003Z,2.50
2022-11-13T19:27:25.677Z,1.10
2022-11-13T19:30:11.685Z,0.80
2022-11-13T19:32:57.440Z,0.50
2022-11-13T19:35:43.138Z,0.80
2022-11-13T19:38:29.294Z,2.50
2022-11-13T19:41:15.134Z,1.30
2022-11-13T19:44:00.942Z,2.00
2022-11-13T19:46:46.807Z,1.20
2022-11-13T19:49:32.475Z,0.70
2022-11-13T19:52:18.172Z,1.10
2022-11-13T19:55:04.462Z,4.30
2022-11-13T19:57:50.471Z,1.50
2022-11-13T20:00:36.120Z,1.00
2022-11-13T20:03:23.225Z,1.10
2022-11-13T20:06:08.728Z,1.00
2022-11-13T20:08:54.516Z,1.80
2022-11-13T20:11:40.013Z,2.00
2022-11-13T20:14:25.712Z,3.00
2022-11-13T20:17:11.261Z,1.80
2022-11-13T20:19:57.047Z,1.70
2022-11-13T20:22:42.630Z,3.70
2022-11-13T20:25:28.619Z,1.00
2022-11-13T20:28:14.724Z,2.90
2022-11-13T20:31:20.897Z,1.70
2022-11-13T20:34:06.371Z,1.70
2022-11-13T20:36:52.144Z,1.30
2022-11-13T20:39:39.203Z,1.80
2022-11-13T20:42:24.843Z,1.60
2022-11-13T20:45:10.633Z,2.00
2022-11-13T20:47:56.418Z,1.80
2022-11-13T20:50:41.906Z,2.30
2022-11-13T20:53:27.687Z,2.50
2022-11-13T20:56:13.537Z,2.40
2022-11-13T20:58:59.568Z,1.90
2022-11-13T21:01:45.395Z,1.80
2022-11-13T21:04:30.928Z,2.70
2022-11-13T21:07:16.860Z,3.20
2022-11-13T21:10:02.431Z,1.80
2022-11-13T21:12:48.055Z,3.20
2022-11-13T21:15:34.113Z,2.90
2022-11-13T21:18:20.818Z,2.40
2022-11-13T21:21:14.290Z,3.80
2022-11-13T21:23:59.859Z,2.50
2022-11-13T21:26:48.693Z,1.10
2022-11-13T21:29:34.504Z,1.70
2022-11-13T21:32:20.496Z,2.90
2022-11-13T21:35:06.609Z,2.10
2022-11-13T21:37:52.254Z,1.50
2022-11-13T21:40:38.243Z,3.30
2022-11-13T21:43:25.253Z,1.30
2022-11-13T21:46:10.644Z,1.20
2022-11-13T21:49:07.118Z,4.30
2022-11-13T21:51:52.954Z,4.30
2022-11-13T21:54:38.748Z,2.70
2022-11-13T21:57:24.870Z,3.20
2022-11-13T22:00:11.578Z,4.10
2022-11-13T22:02:57.438Z,2.50
2022-11-13T22:05:42.990Z,3.40
2022-11-13T22:08:28.681Z,2.80
2022-11-13T22:11:14.688Z,3.00
2022-11-13T22:14:00.324Z,2.10
2022-11-13T22:16:46.782Z,2.30
2022-11-13T22:19:36.129Z,2.60
2022-11-13T22:22:22.052Z,2.80
2022-11-13T22:25:08.231Z,3.10
2022-11-13T22:27:53.514Z,3.20
2022-11-13T22:30:39.250Z,3.80
2022-11-13T22:33:29.352Z,3.00
2022-11-13T22:36:17.003Z,4.30
2022-11-13T22:39:02.898Z,2.10
2022-11-13T22:41:48.385Z,3.80
2022-11-13T22:44:54.345Z,5.80
2022-11-13T22:47:39.511Z,6.70
2022-11-13T22:50:24.985Z,4.00
2022-11-13T22:53:10.613Z,4.80
2022-11-13T22:56:01.654Z,3.90
2022-11-13T22:58:47.160Z,4.20
2022-11-13T23:01:34.888Z,4.70
2022-11-13T23:04:20.600Z,4.30
2022-11-13T23:07:06.090Z,5.60
2022-11-13T23:09:51.735Z,3.60
2022-11-13T23:12:38.237Z,9.10
2022-11-13T23:15:23.712Z,4.80
2022-11-13T23:18:10.049Z,5.60
2022-11-13T23:20:55.843Z,8.40
2022-11-13T23:23:41.635Z,7.50
2022-11-13T23:26:28.165Z,6.70
2022-11-13T23:29:13.683Z,8.90
2022-11-13T23:31:59.461Z,10.80
2022-11-13T23:35:00.582Z,7.60
2022-11-13T23:37:46.855Z,7.70
2022-11-13T23:40:32.397Z,4.00
2022-11-13T23:43:17.899Z,6.40
2022-11-13T23:46:03.657Z,10.80
2022-11-13T23:48:49.253Z,9.00
2022-11-13T23:51:34.970Z,8.30
2022-11-13T23:54:20.602Z,5.50
2022-11-13T23:57:06.495Z,6.20
2022-11-13T23:59:52.481Z,7.50
